createdAt,value
2022-09-12T00:01:13.063Z,79.48
2022-09-12T00:06:23.458Z,79.46
2022-09-12T00:11:31.256Z,79.44
2022-09-12T00:16:40.195Z,79.43
2022-09-12T00:21:48.505Z,79.40
2022-09-12T00:26:56.576Z,79.35
2022-09-12T00:32:05.094Z,79.35
2022-09-12T00:37:13.215Z,79.36
2022-09-12T00:42:21.304Z,79.37
2022-09-12T00:47:31.422Z,79.42
2022-09-12T00:52:43.040Z,79.45
2022-09-12T00:57:55.895Z,79.45
2022-09-12T01:03:06.888Z,79.49
2022-09-12T01:08:14.911Z,79.53
2022-09-12T01:13:22.909Z,79.56
2022-09-12T01:18:42.563Z,79.60
2022-09-12T01:24:32.767Z,79.61
2022-09-12T01:30:07.037Z,79.65
2022-09-12T01:35:23.278Z,79.71
2022-09-12T01:40:37.007Z,79.76
2022-09-12T01:45:55.605Z,79.83
2022-09-12T01:51:12.255Z,79.89
2022-09-12T01:56:23.812Z,79.93
2022-09-12T02:01:34.623Z,79.95
2022-09-12T02:06:47.653Z,79.93
2022-09-12T02:11:59.669Z,79.93
2022-09-12T02:17:12.470Z,79.96
2022-09-12T02:22:24.414Z,79.99
2022-09-12T02:27:39.822Z,80.04
2022-09-12T02:33:00.081Z,80.08
2022-09-12T02:38:12.109Z,80.11
2022-09-12T02:43:20.193Z,80.17
2022-09-12T02:48:33.381Z,80.20
2022-09-12T02:53:41.202Z,80.22
2022-09-12T02:58:50.316Z,80.24
2022-09-12T03:04:13.021Z,80.26
2022-09-12T03:09:29.950Z,80.29
2022-09-12T03:15:01.987Z,80.33
2022-09-12T03:20:18.530Z,80.35
2022-09-12T03:25:30.235Z,80.39
2022-09-12T03:30:43.705Z,80.40
2022-09-12T03:35:52.486Z,80.41
2022-09-12T03:41:00.468Z,80.42
2022-09-12T03:46:08.624Z,80.44
2022-09-12T03:51:16.508Z,80.47
2022-09-12T03:56:24.776Z,80.50
2022-09-12T04:01:33.682Z,80.51
2022-09-12T04:06:42.406Z,80.52
2022-09-12T04:11:50.541Z,80.50
2022-09-12T04:16:58.525Z,80.50
2022-09-12T04:22:06.751Z,80.53
2022-09-12T04:27:14.758Z,80.53
2022-09-12T04:32:22.758Z,80.56
2022-09-12T04:37:31.103Z,80.56
2022-09-12T04:42:39.256Z,80.57
2022-09-12T04:47:47.962Z,80.59
2022-09-12T04:52:57.147Z,80.62
2022-09-12T04:58:05.533Z,80.65
2022-09-12T05:03:13.703Z,80.68
2022-09-12T05:08:22.063Z,80.69
2022-09-12T05:13:30.253Z,80.72
2022-09-12T05:18:39.791Z,80.75
2022-09-12T05:23:49.395Z,80.73
2022-09-12T05:28:58.269Z,80.73
2022-09-12T05:34:07.510Z,80.69
2022-09-12T05:39:14.983Z,80.62
2022-09-12T05:44:23.127Z,80.60
2022-09-12T05:49:54.131Z,80.55
2022-09-12T05:55:02.394Z,80.93
2022-09-12T06:00:13.405Z,81.13
2022-09-12T06:05:21.493Z,80.99
2022-09-12T06:10:30.060Z,80.92
2022-09-12T06:15:38.176Z,80.82
2022-09-12T06:20:46.269Z,80.75
2022-09-12T06:25:54.431Z,80.65
2022-09-12T06:31:08.096Z,80.58
2022-09-12T06:36:18.425Z,80.54
2022-09-12T06:41:27.696Z,80.51
2022-09-12T06:46:35.946Z,80.50
2022-09-12T06:51:44.936Z,80.48
2022-09-12T06:56:52.957Z,80.47
2022-09-12T07:02:02.249Z,80.44
2022-09-12T07:07:10.631Z,80.42
2022-09-12T07:12:18.919Z,80.40
2022-09-12T07:17:27.395Z,80.36
2022-09-12T07:22:35.835Z,80.35
2022-09-12T07:27:46.207Z,80.37
2022-09-12T07:32:58.241Z,80.39
2022-09-12T07:38:06.505Z,80.40
2022-09-12T07:43:14.998Z,80.41
2022-09-12T07:48:23.364Z,80.42
2022-09-12T07:53:37.292Z,80.45
2022-09-12T07:58:46.270Z,80.48
2022-09-12T08:03:59.178Z,80.49
2022-09-12T08:09:08.157Z,80.43
2022-09-12T08:14:18.055Z,80.40
2022-09-12T08:19:26.100Z,80.38
2022-09-12T08:24:34.080Z,80.32
2022-09-12T08:29:42.017Z,80.25
2022-09-12T08:34:50.060Z,80.14
2022-09-12T08:39:58.348Z,80.04
2022-09-12T08:45:24.628Z,79.93
2022-09-12T08:50:32.901Z,79.76
2022-09-12T08:55:42.947Z,79.67
2022-09-12T09:00:59.834Z,79.59
2022-09-12T09:06:23.595Z,79.46
2022-09-12T09:11:55.871Z,79.38
2022-09-12T09:17:02.433Z,79.28
2022-09-12T09:22:16.366Z,79.28
2022-09-12T09:27:40.872Z,79.06
2022-09-12T09:32:53.227Z,78.99
2022-09-12T09:38:14.645Z,78.82
2022-09-12T09:43:27.907Z,78.75
2022-09-12T09:48:37.421Z,78.62
2022-09-12T09:53:52.000Z,78.49
2022-09-12T09:59:10.473Z,78.44
2022-09-12T10:04:24.210Z,78.43
2022-09-12T10:09:34.346Z,78.46
2022-09-12T10:14:43.943Z,78.48
2022-09-12T10:20:10.911Z,78.46
2022-09-12T10:25:27.550Z,78.39
2022-09-12T10:30:35.630Z,78.23
2022-09-12T10:35:51.592Z,78.07
2022-09-12T10:41:05.643Z,77.87
2022-09-12T10:46:33.419Z,77.75
2022-09-12T10:51:41.689Z,77.63
2022-09-12T10:57:05.229Z,77.56
2022-09-12T11:02:26.613Z,77.50
2022-09-12T11:07:55.449Z,77.44
2022-09-12T11:13:17.118Z,77.34
2022-09-12T11:18:52.517Z,77.37
2022-09-12T11:24:31.059Z,77.45
2022-09-12T11:29:51.554Z,77.49
2022-09-12T11:35:16.581Z,77.44
2022-09-12T11:40:34.134Z,77.35
2022-09-12T11:45:46.140Z,77.35
2022-09-12T11:50:53.044Z,77.39
2022-09-12T11:56:07.826Z,77.42
2022-09-12T12:01:22.820Z,77.30
2022-09-12T12:06:33.329Z,77.21
2022-09-12T12:11:45.514Z,77.16
2022-09-12T12:16:53.957Z,77.09
2022-09-12T12:22:10.876Z,76.98
2022-09-12T12:27:47.026Z,76.92
2022-09-12T12:33:00.904Z,76.91
2022-09-12T12:38:29.010Z,76.80
2022-09-12T12:43:37.020Z,76.69
2022-09-12T12:49:12.710Z,76.50
2022-09-12T12:54:56.455Z,76.43
2022-09-12T13:00:09.193Z,76.28
2022-09-12T13:05:24.889Z,76.19
2022-09-12T13:10:34.349Z,76.13
2022-09-12T13:15:55.909Z,76.06
2022-09-12T13:21:12.586Z,76.07
2022-09-12T13:26:26.933Z,75.97
2022-09-12T13:31:35.271Z,75.94
2022-09-12T13:36:58.731Z,75.86
2022-09-12T13:42:32.584Z,75.77
2022-09-12T13:47:43.292Z,75.55
2022-09-12T13:52:54.867Z,75.35
2022-09-12T13:58:05.238Z,75.02
2022-09-12T14:03:47.651Z,74.75
2022-09-12T14:08:55.417Z,74.71
2022-09-12T14:14:08.306Z,74.94
2022-09-12T14:19:17.757Z,74.47
2022-09-12T14:24:26.249Z,74.10
2022-09-12T14:29:35.049Z,73.74
2022-09-12T14:34:43.038Z,73.43
2022-09-12T14:39:51.283Z,73.24
2022-09-12T14:45:03.485Z,72.89
2022-09-12T14:50:21.350Z,72.63
2022-09-12T14:55:34.031Z,72.43
2022-09-12T15:00:58.133Z,72.26
2022-09-12T15:06:08.948Z,72.18
2022-09-12T15:11:20.193Z,72.16
2022-09-12T15:16:28.408Z,72.04
2022-09-12T15:21:36.755Z,71.87
2022-09-12T15:26:44.748Z,71.69
2022-09-12T15:31:54.158Z,71.55
2022-09-12T15:37:01.176Z,71.45
2022-09-12T15:42:10.395Z,71.42
2022-09-12T15:47:18.387Z,71.46
2022-09-12T15:52:26.142Z,71.41
2022-09-12T15:57:34.189Z,71.33
2022-09-12T16:02:42.472Z,71.28
2022-09-12T16:07:52.436Z,71.28
2022-09-12T16:13:01.131Z,71.30
2022-09-12T16:18:09.238Z,71.35
2022-09-12T16:23:17.554Z,71.39
2022-09-12T16:28:26.661Z,71.31
2022-09-12T16:33:35.731Z,71.15
2022-09-12T16:38:48.110Z,71.09
2022-09-12T16:43:56.919Z,71.05
2022-09-12T16:49:06.332Z,71.06
2022-09-12T16:54:14.860Z,71.06
2022-09-12T16:59:23.106Z,71.04
2022-09-12T17:04:31.118Z,71.00
2022-09-12T17:09:39.596Z,70.89
2022-09-12T17:14:48.095Z,70.63
2022-09-12T17:19:55.432Z,70.19
2022-09-12T17:25:03.652Z,69.57
2022-09-12T17:30:13.562Z,69.10
2022-09-12T17:35:22.125Z,68.63
2022-09-12T17:40:55.653Z,68.13
2022-09-12T17:46:01.080Z,67.59
2022-09-12T17:51:14.630Z,67.09
2022-09-12T17:56:22.587Z,66.83
2022-09-12T18:01:49.838Z,66.68
2022-09-12T18:07:00.678Z,66.53
2022-09-12T18:12:09.705Z,66.36
2022-09-12T18:17:17.153Z,66.37
2022-09-12T18:22:25.421Z,66.57
2022-09-12T18:27:33.354Z,66.64
2022-09-12T18:32:41.919Z,67.04
2022-09-12T18:37:50.209Z,67.15
2022-09-12T18:42:58.105Z,67.22
2022-09-12T18:48:06.864Z,67.19
2022-09-12T18:53:15.154Z,67.19
2022-09-12T18:58:23.292Z,67.19
2022-09-12T19:03:31.757Z,67.29
2022-09-12T19:08:39.970Z,67.51
2022-09-12T19:13:50.688Z,67.66
2022-09-12T19:18:59.922Z,67.89
2022-09-12T19:24:11.923Z,68.17
2022-09-12T19:29:20.015Z,68.36
2022-09-12T19:34:28.771Z,68.67
2022-09-12T19:39:36.740Z,69.07
2022-09-12T19:44:45.199Z,69.17
2022-09-12T19:49:54.026Z,69.53
2022-09-12T19:55:02.040Z,69.96
2022-09-12T20:00:10.960Z,70.35
2022-09-12T20:05:20.105Z,70.62
2022-09-12T20:10:28.445Z,70.80
2022-09-12T20:15:36.603Z,70.88
2022-09-12T20:20:44.537Z,70.96
2022-09-12T20:25:52.603Z,70.88
2022-09-12T20:31:04.244Z,71.14
2022-09-12T20:36:15.040Z,71.57
2022-09-12T20:41:23.652Z,73.05
2022-09-12T20:46:32.361Z,71.86
2022-09-12T20:51:40.964Z,71.32
2022-09-12T20:56:49.017Z,71.36
2022-09-12T21:01:57.397Z,71.36
2022-09-12T21:07:05.593Z,71.46
2022-09-12T21:12:13.678Z,71.50
2022-09-12T21:17:20.917Z,71.57
2022-09-12T21:22:28.917Z,71.71
2022-09-12T21:27:37.022Z,71.66
2022-09-12T21:32:45.306Z,71.81
2022-09-12T21:37:54.870Z,72.07
2022-09-12T21:43:02.860Z,73.43
2022-09-12T21:48:11.413Z,74.27
2022-09-12T21:53:19.397Z,73.96
2022-09-12T21:58:28.715Z,73.52
2022-09-12T22:03:36.891Z,73.04
2022-09-12T22:08:44.990Z,72.50
2022-09-12T22:13:53.190Z,71.94
2022-09-12T22:19:01.629Z,71.34
2022-09-12T22:24:29.713Z,70.91
2022-09-12T22:29:38.859Z,70.50
2022-09-12T22:34:46.978Z,70.07
2022-09-12T22:39:55.620Z,69.89
2022-09-12T22:45:03.913Z,69.61
2022-09-12T22:50:12.663Z,69.25
2022-09-12T22:55:21.307Z,69.11
2022-09-12T23:00:30.116Z,68.78
2022-09-12T23:05:39.898Z,68.78
2022-09-12T23:10:48.019Z,68.97
2022-09-12T23:16:03.177Z,68.90
2022-09-12T23:21:12.473Z,68.87
2022-09-12T23:26:22.198Z,68.49
2022-09-12T23:31:31.347Z,68.41
2022-09-12T23:36:39.566Z,68.29
2022-09-12T23:41:47.509Z,68.18
2022-09-12T23:46:55.601Z,68.27
2022-09-12T23:52:04.234Z,68.19
2022-09-12T23:57:12.308Z,68.04
